EMPK1: COTTONWOOD R AT EMPORIA

                                SHEF ID:       EMPK1     COTTONWOOD R AT EMPORIA
STATION TYPE:

STAGE RIV-FLOW BAT-LOAD
ft cfs volt
Ccp-Rev Ccp-Rev Ccp-Rev
(America/Chicago)
04/28 00:00 14.96 7801 12.73
04/28 01:00 14.97 7810 12.73
04/28 02:00 14.95 7793 12.73
04/28 03:00 14.92 7768 12.65
04/28 04:00 14.82 7683 12.65
04/28 05:00 14.74 7616 12.65
04/28 06:00 14.59 7490 12.57
04/28 07:00 14.43 7357 12.57
04/28 08:00 14.22 7183 12.65
04/28 09:00 13.97 6978 13.44
04/28 10:00 13.73 6783 13.92
04/28 11:00 13.44 6550 13.92
04/28 12:00 13.13 6304 13.84
04/28 13:00 12.79 6038 13.92
04/28 14:00 12.41 5744 14.08
04/28 15:00 12.05 5471 13.60
04/28 16:00 11.69 5202 13.68
04/28 17:00 11.30 4916 14.08
04/28 18:00 10.92 4642 13.60
04/28 19:00 10.52 4360 13.53
04/28 20:00 10.18 4125 13.37
04/28 21:00 9.85 3900 12.81
04/28 22:00 9.54 3693 12.81
04/28 23:00 9.23 3490 12.73
Data processed at Wed 29Apr2026 04:36 GMT

NOTICE: If you are parsing this page

Please convert to using our Data API. Starting early 2026 we will be migrating to: https://water.usace.army.mil with modern pages rendered in JavaScript. When this migration completes you will no longer be able to scrape this page! CWMSDataAPI (CDA)

Timeseries IDs (TSIDs)

TSIDs used from left to right in the data table
CEMP.Stage.Inst.1Hour.0.Ccp-Rev
CEMP.Flow.Inst.1Hour.0.Ccp-Rev
CEMP.Volt-Battery Load.Inst.1Hour.0.Ccp-Rev

                            

All information presented herein is the property of the government of the United States of America and may be revised or deleted at any time without prior notice. Dissemination of this information without the expressed written consent of the Public Affairs Office, Tulsa District U.S. Army Corps of Engineers is strictly prohibited. These data are gathered electronically and, as presented, have NOT undergone any form of quality control. These data are NOT guaranteed to be valid or correct.